Time;durP1;ratioP1;P1;durP2;ratioP2;P2;SDS_P1;SDS_P2;PMS_P1;PMS_P2;Temp;Humidity;BMP_temperature;BMP_pressure;BME280_temperature;BME280_humidity;BME280_pressure;Samples;Min_cycle;Max_cycle;Signal;HPM_P1;HPM_P2
2022/09/26 00:00:52;;;;;;;2.75;1.60;;;28.40;92.60;;;;;;5086706;28;20082;-55
2022/09/26 00:03:18;;;;;;;4.25;1.30;;;28.40;92.60;;;;;;5086918;28;20025;-54
2022/09/26 00:05:46;;;;;;;7.22;1.40;;;28.40;92.60;;;;;;5086480;28;20064;-50
2022/09/26 00:08:13;;;;;;;6.60;1.60;;;28.40;92.80;;;;;;5086750;28;20092;-57
2022/09/26 00:10:39;;;;;;;3.47;1.45;;;28.40;92.70;;;;;;5086633;28;20032;-54
2022/09/26 00:13:06;;;;;;;3.83;1.40;;;28.40;92.60;;;;;;5086546;28;20044;-54
2022/09/26 00:15:33;;;;;;;8.60;1.67;;;28.40;92.60;;;;;;5086676;28;20088;-59
2022/09/26 00:18:00;;;;;;;6.35;1.13;;;28.40;92.60;;;;;;5086587;28;20021;-56
2022/09/26 00:20:28;;;;;;;2.90;1.48;;;28.40;92.50;;;;;;5085082;28;20031;-59
2022/09/26 00:22:55;;;;;;;6.68;1.45;;;28.50;92.50;;;;;;5086475;28;20039;-58
2022/09/26 00:25:22;;;;;;;4.15;1.08;;;28.40;92.40;;;;;;5085165;28;20024;-55
2022/09/26 00:27:48;;;;;;;6.55;1.40;;;28.40;92.40;;;;;;5086260;28;20060;-56
2022/09/26 00:30:19;;;;;;;3.67;1.33;;;28.50;92.40;;;;;;5084806;28;20402;-60
2022/09/26 00:32:46;;;;;;;2.92;1.33;;;28.40;92.50;;;;;;5086348;28;20024;-54
2022/09/26 00:35:12;;;;;;;2.70;1.05;;;28.50;92.40;;;;;;5086046;28;20056;-53
2022/09/26 00:37:39;;;;;;;3.22;1.30;;;28.50;92.40;;;;;;5086339;28;20288;-54
2022/09/26 00:40:06;;;;;;;17.00;2.30;;;28.40;92.40;;;;;;5085990;28;20139;-54
2022/09/26 00:42:33;;;;;;;7.30;1.70;;;28.40;92.40;;;;;;5085815;28;20032;-57
2022/09/26 00:45:00;;;;;;;4.15;1.40;;;28.40;92.50;;;;;;5085917;28;20078;-52
2022/09/26 00:47:32;;;;;;;6.32;1.30;;;28.40;92.50;;;;;;5085798;28;20116;-57
2022/09/26 00:50:06;;;;;;;4.03;1.13;;;28.40;92.50;;;;;;5085711;28;20123;-53
2022/09/26 00:52:40;;;;;;;3.25;1.10;;;28.40;92.50;;;;;;5085896;28;20070;-55
2022/09/26 00:55:11;;;;;;;5.60;1.05;;;28.40;92.50;;;;;;5085686;28;20080;-55
2022/09/26 00:57:45;;;;;;;2.92;1.13;;;28.40;92.60;;;;;;5085893;28;20020;-56
2022/09/26 01:00:14;;;;;;;4.07;1.17;;;28.40;92.60;;;;;;5085473;28;20023;-54
2022/09/26 01:02:42;;;;;;;34.83;3.03;;;28.40;92.50;;;;;;5085806;28;20051;-53
2022/09/26 01:05:13;;;;;;;56.35;3.53;;;28.40;92.50;;;;;;5084863;28;20036;-54
2022/09/26 01:07:40;;;;;;;4.85;1.08;;;28.30;92.50;;;;;;5085649;28;20051;-54
2022/09/26 01:10:08;;;;;;;2.58;1.35;;;28.40;92.60;;;;;;5085732;28;20400;-55
2022/09/26 01:12:37;;;;;;;36.50;2.45;;;28.40;92.50;;;;;;5085775;28;20028;-55
2022/09/26 01:15:06;;;;;;;3.22;1.27;;;28.40;92.50;;;;;;5085845;28;20017;-57
2022/09/26 01:17:33;;;;;;;21.10;2.10;;;28.40;92.50;;;;;;5086490;28;20085;-53
2022/09/26 01:20:23;;;;;;;7.10;1.40;;;28.40;92.50;;;;;;5086474;28;20037;-56
2022/09/26 01:23:24;;;;;;;3.45;1.48;;;28.30;92.30;;;;;;5086104;28;20078;-56
2022/09/26 01:26:15;;;;;;;4.22;1.25;;;28.30;92.40;;;;;;5085624;28;20035;-57
2022/09/26 01:29:18;;;;;;;7.57;1.60;;;28.30;92.40;;;;;;5086103;28;20173;-61
2022/09/26 01:35:21;;;;;;;5.47;1.50;;;28.30;92.40;;;;;;5084864;28;20078;-59
2022/09/26 01:38:21;;;;;;;3.65;1.40;;;28.20;92.40;;;;;;5085276;28;20040;-55
2022/09/26 01:40:58;;;;;;;1.75;1.00;;;28.20;92.40;;;;;;5080601;28;20013;-53
2022/09/26 01:43:45;;;;;;;2.05;1.00;;;28.20;92.40;;;;;;5072983;28;20032;-53
2022/09/26 01:46:24;;;;;;;5.47;1.52;;;28.00;92.40;;;;;;5080801;28;20041;-56
2022/09/26 01:49:17;;;;;;;6.13;1.73;;;27.90;92.70;;;;;;5079441;28;20082;-54
2022/09/26 01:52:21;;;;;;;27.25;2.05;;;27.90;92.70;;;;;;5083279;28;20035;-57
2022/09/26 01:55:05;;;;;;;11.23;1.75;;;27.90;92.60;;;;;;5084514;28;20078;-55
2022/09/26 01:57:39;;;;;;;11.35;1.33;;;27.90;92.60;;;;;;5084688;28;20083;-56
2022/09/26 02:00:11;;;;;;;45.22;3.08;;;27.90;92.60;;;;;;5084595;28;20313;-57
2022/09/26 02:02:42;;;;;;;4.25;1.40;;;27.90;92.60;;;;;;5084560;28;20062;-56
2022/09/26 02:05:14;;;;;;;3.35;1.10;;;27.90;92.50;;;;;;5083527;28;20043;-56
2022/09/26 02:07:47;;;;;;;4.38;1.15;;;27.90;92.50;;;;;;5082836;28;20062;-57
2022/09/26 02:10:23;;;;;;;3.95;1.17;;;28.00;92.60;;;;;;5082672;28;20044;-63
2022/09/26 02:12:57;;;;;;;2.67;1.10;;;28.00;92.50;;;;;;5082672;28;20436;-54
2022/09/26 02:15:26;;;;;;;2.60;1.20;;;28.00;92.50;;;;;;5081695;28;20296;-54
2022/09/26 02:18:01;;;;;;;3.70;1.35;;;28.00;92.50;;;;;;5082741;28;20088;-53
2022/09/26 02:20:35;;;;;;;8.38;3.33;;;28.00;92.60;;;;;;5083040;28;20095;-56
2022/09/26 02:23:03;;;;;;;13.10;3.97;;;28.00;92.60;;;;;;5084368;28;20174;-54
2022/09/26 02:25:33;;;;;;;9.77;3.47;;;28.00;92.80;;;;;;5083981;28;20038;-55
2022/09/26 02:28:00;;;;;;;13.93;4.90;;;28.00;93.00;;;;;;5083663;28;20030;-56
2022/09/26 02:30:27;;;;;;;15.00;5.13;;;27.90;93.20;;;;;;5084070;28;20032;-55
2022/09/26 02:32:53;;;;;;;17.52;4.68;;;27.90;93.30;;;;;;5082618;28;20038;-57
2022/09/26 02:38:06;;;;;;;8.63;3.85;;;27.90;93.30;;;;;;5084206;28;20100;-52
2022/09/26 02:40:57;;;;;;;7.63;3.33;;;27.90;93.20;;;;;;5083971;28;20021;-53
2022/09/26 02:43:39;;;;;;;14.88;3.40;;;27.80;93.20;;;;;;5084216;28;20303;-54
2022/09/26 02:46:38;;;;;;;10.95;2.38;;;27.70;93.20;;;;;;5083927;28;20020;-53
2022/09/26 02:49:04;;;;;;;9.93;2.22;;;27.70;93.30;;;;;;5084063;28;20259;-58
2022/09/26 02:52:07;;;;;;;7.63;2.08;;;27.70;93.20;;;;;;5083656;28;20027;-60
2022/09/26 02:54:39;;;;;;;;;;;27.70;93.20;;;;;;5084214;28;20036;-55
2022/09/26 02:57:43;;;;;;;8.30;2.13;;;27.60;93.20;;;;;;5083731;28;20180;-56
2022/09/26 03:00:27;;;;;;;8.05;2.05;;;27.60;93.30;;;;;;5083757;28;20321;-53
2022/09/26 03:03:06;;;;;;;5.95;2.00;;;27.60;93.30;;;;;;5083929;28;20312;-56
2022/09/26 03:05:37;;;;;;;8.35;1.98;;;27.60;93.20;;;;;;5083875;28;20274;-57
2022/09/26 03:08:09;;;;;;;6.25;2.00;;;27.60;93.20;;;;;;5083924;28;20071;-54
2022/09/26 03:10:37;;;;;;;5.85;1.92;;;27.70;93.10;;;;;;5083788;28;20056;-58
2022/09/26 03:13:10;;;;;;;6.63;2.03;;;27.70;93.10;;;;;;5083699;28;20081;-55
2022/09/26 03:15:39;;;;;;;5.20;1.83;;;27.70;93.10;;;;;;5083573;28;20032;-54
2022/09/26 03:18:15;;;;;;;4.53;1.63;;;27.70;93.10;;;;;;5083321;28;20016;-55
2022/09/26 03:20:43;;;;;;;10.13;1.88;;;27.70;93.10;;;;;;5083411;28;20032;-54
2022/09/26 03:23:10;;;;;;;5.05;1.65;;;27.70;93.00;;;;;;5083729;28;20319;-54
2022/09/26 03:25:37;;;;;;;2.88;1.50;;;27.70;93.00;;;;;;5083421;28;20042;-54
2022/09/26 03:28:04;;;;;;;4.13;1.52;;;27.70;93.10;;;;;;5086359;28;20092;-56
2022/09/26 03:30:31;;;;;;;4.38;1.50;;;27.70;93.10;;;;;;5087263;28;20052;-52
2022/09/26 03:32:57;;;;;;;3.30;1.50;;;27.70;93.10;;;;;;5087365;28;20032;-53
2022/09/26 03:35:24;;;;;;;6.30;1.25;;;27.70;93.10;;;;;;5087339;28;20040;-54
2022/09/26 03:37:51;;;;;;;5.13;1.40;;;27.70;93.20;;;;;;5087435;28;20032;-54
2022/09/26 03:40:17;;;;;;;4.45;1.27;;;27.60;93.20;;;;;;5087011;28;20020;-54
2022/09/26 03:42:45;;;;;;;5.95;1.33;;;27.60;93.30;;;;;;5087433;28;20020;-55
2022/09/26 03:45:12;;;;;;;4.10;1.10;;;27.60;93.30;;;;;;5087031;28;20342;-55
2022/09/26 03:47:40;;;;;;;4.47;1.10;;;27.60;93.30;;;;;;5087099;28;20027;-56
2022/09/26 03:50:08;;;;;;;4.13;1.10;;;27.60;93.30;;;;;;5086872;28;20060;-57
2022/09/26 03:52:35;;;;;;;3.53;1.10;;;27.60;93.30;;;;;;5087029;28;20039;-55
2022/09/26 03:55:02;;;;;;;6.82;1.30;;;27.60;93.30;;;;;;5086852;28;20020;-57
2022/09/26 03:57:28;;;;;;;4.93;1.00;;;27.60;93.40;;;;;;5086976;28;20025;-55
2022/09/26 03:59:55;;;;;;;5.45;1.42;;;27.50;93.30;;;;;;5086829;28;20209;-54
2022/09/26 04:02:21;;;;;;;10.93;1.40;;;27.50;93.30;;;;;;5086868;28;20059;-58
2022/09/26 04:04:48;;;;;;;3.40;1.30;;;27.40;93.20;;;;;;5086686;28;20033;-55
2022/09/26 04:07:15;;;;;;;3.10;1.10;;;27.40;93.30;;;;;;5086769;28;20022;-56
2022/09/26 04:09:41;;;;;;;5.68;1.20;;;27.40;93.30;;;;;;5086402;28;20217;-53
2022/09/26 04:12:08;;;;;;;4.68;2.10;;;27.40;93.20;;;;;;5086655;28;20036;-54
2022/09/26 04:14:34;;;;;;;3.65;1.70;;;27.40;93.20;;;;;;5086444;28;20032;-54
2022/09/26 04:17:01;;;;;;;2.53;1.73;;;27.40;93.20;;;;;;5086562;28;20020;-52
2022/09/26 04:19:28;;;;;;;4.10;1.80;;;27.40;93.20;;;;;;5086802;28;20082;-54
2022/09/26 04:21:54;;;;;;;4.15;1.77;;;27.40;93.20;;;;;;5086371;28;20323;-55
2022/09/26 04:24:21;;;;;;;3.25;1.60;;;27.40;93.20;;;;;;5086416;28;20020;-58
2022/09/26 04:26:48;;;;;;;1.88;1.35;;;27.40;93.10;;;;;;5086224;28;20037;-54
2022/09/26 04:29:15;;;;;;;3.17;1.55;;;27.40;93.10;;;;;;5086423;28;20332;-60
2022/09/26 04:31:41;;;;;;;3.58;1.65;;;27.40;93.40;;;;;;5086020;28;20040;-54
2022/09/26 04:34:10;;;;;;;3.47;1.50;;;27.40;93.40;;;;;;5086110;28;20025;-54
2022/09/26 04:36:37;;;;;;;7.07;1.50;;;27.50;93.10;;;;;;5086110;28;20024;-60
2022/09/26 04:39:04;;;;;;;2.00;1.30;;;27.50;93.10;;;;;;5085113;28;20040;-55
2022/09/26 04:41:31;;;;;;;1.80;1.13;;;27.50;93.10;;;;;;5085876;28;20201;-52
2022/09/26 04:43:58;;;;;;;4.75;1.23;;;27.50;93.10;;;;;;5086080;28;20059;-55
2022/09/26 04:46:28;;;;;;;3.45;1.20;;;27.50;93.10;;;;;;5085868;28;20142;-54
2022/09/26 04:48:56;;;;;;;2.30;1.13;;;27.50;93.10;;;;;;5085860;28;20328;-53
2022/09/26 04:51:25;;;;;;;4.40;1.23;;;27.40;93.10;;;;;;5085737;28;20331;-53
2022/09/26 04:53:51;;;;;;;3.88;1.30;;;27.50;93.10;;;;;;5086283;28;20017;-52
2022/09/26 04:56:20;;;;;;;4.93;1.40;;;27.50;93.10;;;;;;5085765;28;20033;-52
2022/09/26 04:58:47;;;;;;;5.35;1.20;;;27.50;93.20;;;;;;5086250;28;20028;-54
2022/09/26 05:01:16;;;;;;;4.30;1.17;;;27.40;93.20;;;;;;5085682;28;20078;-55
2022/09/26 05:03:43;;;;;;;4.65;1.23;;;27.50;93.20;;;;;;5074267;28;20032;-56
2022/09/26 05:06:11;;;;;;;3.67;1.33;;;27.40;93.20;;;;;;5075970;28;20059;-60
2022/09/26 05:08:39;;;;;;;2.15;1.00;;;27.50;93.20;;;;;;5067660;28;20024;-55
2022/09/26 05:11:07;;;;;;;3.08;1.23;;;27.40;93.20;;;;;;5078857;28;20028;-59
2022/09/26 05:13:34;;;;;;;2.63;1.30;;;27.40;93.20;;;;;;5080941;28;20305;-63
2022/09/26 05:16:02;;;;;;;4.38;1.20;;;27.40;93.20;;;;;;5073102;28;20029;-56
2022/09/26 05:18:29;;;;;;;4.10;1.10;;;27.40;93.20;;;;;;5084273;28;20062;-57
2022/09/26 05:20:56;;;;;;;3.08;1.10;;;27.40;93.30;;;;;;5085372;28;20084;-57
2022/09/26 05:26:19;;;;;;;4.72;1.33;;;27.40;93.10;;;;;;5085256;28;20058;-58
2022/09/26 05:28:54;;;;;;;4.75;1.30;;;27.40;93.10;;;;;;5085530;28;20036;-58
2022/09/26 05:31:23;;;;;;;5.10;1.52;;;27.40;93.10;;;;;;5084855;28;20049;-59
2022/09/26 05:33:50;;;;;;;3.80;1.10;;;27.40;93.20;;;;;;5075257;28;20025;-58
2022/09/26 05:36:18;;;;;;;6.30;1.40;;;27.40;93.10;;;;;;5064841;28;20021;-56
2022/09/26 05:38:45;;;;;;;4.30;1.30;;;27.30;93.10;;;;;;5065414;28;20040;-57
2022/09/26 05:41:13;;;;;;;6.57;1.38;;;27.30;93.00;;;;;;5064830;28;20309;-57
2022/09/26 05:43:40;;;;;;;5.00;1.10;;;27.30;92.90;;;;;;5065241;28;20017;-57
2022/09/26 05:46:08;;;;;;;1.88;1.10;;;27.30;92.90;;;;;;5073704;28;20039;-59
2022/09/26 05:48:37;;;;;;;2.65;1.20;;;27.30;92.80;;;;;;5084706;28;20259;-60
2022/09/26 05:51:19;;;;;;;6.95;1.27;;;27.30;92.90;;;;;;5084464;28;20100;-58
2022/09/26 05:53:48;;;;;;;5.45;1.10;;;27.30;92.90;;;;;;5085028;28;20051;-58
2022/09/26 05:56:18;;;;;;;3.33;1.20;;;27.30;92.90;;;;;;5084467;28;20028;-56
2022/09/26 05:58:44;;;;;;;4.07;1.20;;;27.30;92.90;;;;;;5085034;28;20079;-58
2022/09/26 06:01:15;;;;;;;2.25;1.20;;;27.30;92.90;;;;;;5084595;28;20016;-57
2022/09/26 06:03:46;;;;;;;3.67;1.20;;;27.30;93.00;;;;;;5085015;28;20103;-62
2022/09/26 06:06:15;;;;;;;3.67;1.17;;;27.30;93.10;;;;;;5084646;28;20025;-59
2022/09/26 06:08:42;;;;;;;6.20;1.48;;;27.30;93.10;;;;;;5083334;28;20028;-57
2022/09/26 06:11:12;;;;;;;5.88;1.42;;;27.30;93.10;;;;;;5084417;28;20017;-59
2022/09/26 06:13:42;;;;;;;4.78;1.48;;;27.30;93.20;;;;;;5084839;28;20069;-57
2022/09/26 06:16:17;;;;;;;4.57;1.27;;;27.30;93.10;;;;;;5084193;28;20040;-57
2022/09/26 06:18:45;;;;;;;4.88;1.40;;;27.20;93.10;;;;;;5084805;28;20204;-57
2022/09/26 06:21:15;;;;;;;3.40;1.20;;;27.20;93.20;;;;;;5083096;28;20036;-58
2022/09/26 06:23:41;;;;;;;4.68;1.17;;;27.20;93.20;;;;;;5084730;28;20024;-60
2022/09/26 06:26:13;;;;;;;3.80;1.20;;;27.20;93.20;;;;;;5083191;28;20047;-58
2022/09/26 06:28:40;;;;;;;4.50;1.20;;;27.20;93.00;;;;;;5083944;28;20023;-61
2022/09/26 06:31:11;;;;;;;4.45;1.20;;;27.20;93.00;;;;;;5083877;28;20072;-56
2022/09/26 06:33:38;;;;;;;6.35;1.30;;;27.20;93.10;;;;;;5084108;28;20028;-58
2022/09/26 06:36:07;;;;;;;4.07;1.00;;;27.20;93.20;;;;;;5083938;28;20020;-56
2022/09/26 06:38:34;;;;;;;7.75;1.20;;;27.20;93.20;;;;;;5084513;28;20086;-55
2022/09/26 06:41:01;;;;;;;6.50;1.27;;;27.20;93.10;;;;;;5084008;28;20028;-58
2022/09/26 06:43:28;;;;;;;5.60;1.20;;;27.20;93.00;;;;;;5084228;28;20036;-57
2022/09/26 06:45:55;;;;;;;6.88;1.38;;;27.20;92.90;;;;;;5083948;28;20052;-56
2022/09/26 06:48:23;;;;;;;6.80;1.52;;;27.20;93.00;;;;;;5083860;28;20028;-56
2022/09/26 06:50:59;;;;;;;4.45;1.13;;;27.20;93.10;;;;;;5083706;28;20146;-56
2022/09/26 06:53:26;;;;;;;3.47;0.98;;;27.20;93.10;;;;;;5084241;28;20052;-57
2022/09/26 06:55:53;;;;;;;4.68;1.05;;;27.20;93.20;;;;;;5083829;28;20033;-57
2022/09/26 06:58:20;;;;;;;7.57;1.20;;;27.10;93.10;;;;;;5084105;28;20017;-63
2022/09/26 07:00:47;;;;;;;4.47;1.17;;;27.10;93.00;;;;;;5083814;28;20092;-56
2022/09/26 07:03:14;;;;;;;4.72;1.08;;;27.10;92.90;;;;;;5087232;28;20044;-56
2022/09/26 07:05:42;;;;;;;2.60;0.90;;;27.10;92.90;;;;;;5087775;28;20031;-57
2022/09/26 07:08:09;;;;;;;4.07;1.10;;;27.10;93.00;;;;;;5088294;28;20316;-58
2022/09/26 07:10:36;;;;;;;3.78;1.25;;;27.10;93.00;;;;;;5087783;28;20064;-55
2022/09/26 07:13:05;;;;;;;3.58;0.98;;;27.10;93.10;;;;;;5087896;28;20044;-58
2022/09/26 07:15:34;;;;;;;3.42;1.02;;;27.10;93.10;;;;;;5087675;28;20256;-57
2022/09/26 07:18:02;;;;;;;3.97;1.20;;;27.10;93.10;;;;;;5087989;28;20024;-56
2022/09/26 07:20:32;;;;;;;5.07;1.10;;;27.10;93.10;;;;;;5087489;28;20068;-57
2022/09/26 07:23:02;;;;;;;5.57;1.17;;;27.10;93.20;;;;;;5087859;28;20288;-57
2022/09/26 07:25:30;;;;;;;2.65;1.00;;;27.10;93.10;;;;;;5087369;28;20032;-55
2022/09/26 07:27:57;;;;;;;5.57;1.10;;;27.10;93.10;;;;;;5087350;28;20032;-55
2022/09/26 07:30:24;;;;;;;10.55;1.30;;;27.10;93.20;;;;;;5087234;28;20051;-54
2022/09/26 07:32:50;;;;;;;5.53;1.30;;;27.10;93.20;;;;;;5087035;28;20028;-55
2022/09/26 07:35:17;;;;;;;4.18;1.23;;;27.10;93.20;;;;;;5087326;28;20316;-57
2022/09/26 07:37:45;;;;;;;9.30;1.23;;;27.10;93.20;;;;;;5087509;28;20036;-55
2022/09/26 07:40:11;;;;;;;9.32;1.52;;;27.10;93.20;;;;;;5087441;28;20305;-56
2022/09/26 07:42:38;;;;;;;6.80;1.60;;;27.10;93.10;;;;;;5087335;28;20055;-62
2022/09/26 07:45:05;;;;;;;6.97;1.30;;;27.10;93.10;;;;;;5087110;28;20095;-56
2022/09/26 07:50:18;;;;;;;4.20;1.10;;;27.10;93.10;;;;;;5087045;28;20063;-56
2022/09/26 07:52:47;;;;;;;5.00;1.08;;;27.10;93.10;;;;;;5087161;28;20384;-56
2022/09/26 07:55:20;;;;;;;5.38;1.17;;;27.00;93.00;;;;;;5086893;28;20153;-56
2022/09/26 07:57:48;;;;;;;3.97;1.25;;;27.00;93.10;;;;;;5087166;28;20082;-57
2022/09/26 08:00:18;;;;;;;4.53;1.20;;;27.00;93.00;;;;;;5086734;28;20095;-58
2022/09/26 08:02:45;;;;;;;4.78;1.00;;;27.00;93.00;;;;;;5087037;28;20031;-56
2022/09/26 08:05:18;;;;;;;4.53;1.33;;;27.00;93.00;;;;;;5087065;28;20033;-56
2022/09/26 08:07:46;;;;;;;5.35;1.10;;;27.00;92.90;;;;;;5086873;28;20074;-56
2022/09/26 08:10:20;;;;;;;6.93;1.25;;;26.90;93.00;;;;;;5086701;28;20030;-58
2022/09/26 08:12:47;;;;;;;5.13;1.30;;;27.00;93.30;;;;;;5086744;28;20264;-56
2022/09/26 08:15:14;;;;;;;4.57;1.40;;;27.00;93.20;;;;;;5086594;28;20059;-61
2022/09/26 08:17:42;;;;;;;4.20;1.40;;;27.00;93.20;;;;;;5085481;28;20020;-58
2022/09/26 08:20:09;;;;;;;2.90;1.38;;;27.00;93.20;;;;;;5086781;28;20125;-58
2022/09/26 08:22:36;;;;;;;3.22;1.52;;;27.00;93.20;;;;;;5086773;28;20103;-56
2022/09/26 08:25:05;;;;;;;6.43;1.50;;;27.00;93.30;;;;;;5086429;28;20083;-63
2022/09/26 08:27:33;;;;;;;2.63;1.38;;;27.00;93.30;;;;;;5086572;28;20372;-61
2022/09/26 08:30:03;;;;;;;5.07;1.52;;;27.00;93.40;;;;;;5086418;28;20055;-57
2022/09/26 08:32:31;;;;;;;4.43;1.38;;;27.00;93.40;;;;;;5086419;28;20066;-57
2022/09/26 08:34:58;;;;;;;2.97;1.45;;;27.00;93.50;;;;;;5086574;28;20212;-57
2022/09/26 08:37:26;;;;;;;2.70;1.52;;;27.00;93.50;;;;;;5086305;28;20028;-58
2022/09/26 08:39:53;;;;;;;8.85;1.48;;;27.00;93.60;;;;;;5086144;28;20033;-57
2022/09/26 08:43:01;;;;;;;4.00;1.40;;;27.00;93.50;;;;;;5086110;28;20032;-61
2022/09/26 08:49:13;;;;;;;4.03;1.40;;;27.00;93.80;;;;;;5084133;28;20028;-57
2022/09/26 08:51:48;;;;;;;3.38;1.60;;;27.00;93.70;;;;;;5085667;28;20048;-57
2022/09/26 08:54:28;;;;;;;4.38;1.42;;;26.90;93.80;;;;;;5085995;28;20036;-58
2022/09/26 08:57:04;;;;;;;3.92;1.67;;;27.00;94.00;;;;;;5085830;28;20246;-56
2022/09/26 08:59:46;;;;;;;4.22;1.70;;;27.00;93.90;;;;;;5085773;28;20143;-61
2022/09/26 09:02:22;;;;;;;2.55;1.45;;;26.90;93.90;;;;;;5085718;28;20043;-57
2022/09/26 09:04:58;;;;;;;3.92;1.40;;;26.90;94.00;;;;;;5085740;28;20044;-58
2022/09/26 09:07:26;;;;;;;6.78;1.65;;;26.90;94.00;;;;;;5085579;28;20033;-57
2022/09/26 09:09:59;;;;;;;2.50;1.50;;;26.90;94.00;;;;;;5085466;28;20028;-58
2022/09/26 09:12:53;;;;;;;5.32;1.70;;;26.90;93.90;;;;;;5085549;28;20095;-57
2022/09/26 09:15:43;;;;;;;6.13;1.63;;;26.90;94.00;;;;;;5084446;28;20202;-56
2022/09/26 09:18:28;;;;;;;3.50;1.88;;;26.90;94.00;;;;;;5085609;28;20092;-56
2022/09/26 09:21:21;;;;;;;4.10;1.30;;;26.80;93.90;;;;;;5085252;28;20044;-56
2022/09/26 09:24:35;;;;;;;3.85;1.50;;;26.80;93.80;;;;;;5084977;28;20066;-56
2022/09/26 09:27:20;;;;;;;4.82;1.58;;;26.80;93.80;;;;;;5085576;28;20185;-57
2022/09/26 09:30:15;;;;;;;2.20;1.40;;;26.80;93.80;;;;;;5084991;28;20035;-59
2022/09/26 09:32:51;;;;;;;4.50;1.67;;;26.80;93.70;;;;;;5084860;28;20111;-57
2022/09/26 09:35:25;;;;;;;3.05;1.58;;;26.80;93.60;;;;;;5085011;28;20040;-57
2022/09/26 09:37:53;;;;;;;5.03;1.60;;;26.80;93.60;;;;;;5085184;28;20016;-59
2022/09/26 09:40:47;;;;;;;5.35;1.67;;;26.80;93.70;;;;;;5084819;28;20039;-56
2022/09/26 09:43:35;;;;;;;3.78;1.75;;;26.80;93.70;;;;;;5085235;28;20027;-56
2022/09/26 09:46:09;;;;;;;5.47;1.98;;;26.80;93.70;;;;;;5084737;28;20051;-56
2022/09/26 09:48:35;;;;;;;4.35;1.90;;;26.80;93.70;;;;;;5085123;28;20027;-56
2022/09/26 09:51:15;;;;;;;2.70;1.80;;;26.80;93.80;;;;;;5084724;28;20044;-57
2022/09/26 09:53:51;;;;;;;4.50;1.70;;;26.80;93.70;;;;;;5085191;28;20073;-56
2022/09/26 09:56:31;;;;;;;3.47;1.67;;;26.80;93.80;;;;;;5084669;28;20048;-56
2022/09/26 09:59:37;;;;;;;4.85;1.98;;;26.80;93.90;;;;;;5085229;28;20021;-58
2022/09/26 10:02:23;;;;;;;4.30;2.17;;;26.80;93.90;;;;;;5084381;28;20036;-56
2022/09/26 10:05:17;;;;;;;5.93;2.10;;;26.80;93.90;;;;;;5084491;28;20025;-57
2022/09/26 10:07:45;;;;;;;3.72;2.35;;;26.80;93.90;;;;;;5084492;28;20036;-56
2022/09/26 10:10:19;;;;;;;5.57;2.40;;;26.80;93.90;;;;;;5084376;28;20106;-56
2022/09/26 10:12:50;;;;;;;5.82;2.70;;;26.70;93.90;;;;;;5084459;28;20039;-56
2022/09/26 10:15:25;;;;;;;5.05;2.78;;;26.70;93.90;;;;;;5084262;28;20028;-58
2022/09/26 10:18:06;;;;;;;7.20;3.55;;;26.70;93.90;;;;;;5084519;28;20089;-59
2022/09/26 10:20:36;;;;;;;7.47;2.28;;;26.70;94.00;;;;;;5084112;28;20092;-61
2022/09/26 10:23:30;;;;;;;4.20;2.75;;;26.70;93.90;;;;;;5084553;28;20418;-64
2022/09/26 10:26:02;;;;;;;7.70;2.58;;;26.60;93.90;;;;;;5084006;28;20244;-57
2022/09/26 10:28:51;;;;;;;6.63;2.30;;;26.70;93.90;;;;;;5084547;28;20033;-57
2022/09/26 10:31:36;;;;;;;3.13;1.98;;;26.60;93.90;;;;;;5083855;28;20045;-58
2022/09/26 10:34:06;;;;;;;2.05;1.90;;;26.60;93.90;;;;;;5083955;28;20052;-57
2022/09/26 10:36:36;;;;;;;2.63;1.80;;;26.60;93.90;;;;;;5083269;28;20211;-60
2022/09/26 10:42:03;;;;;;;2.75;1.90;;;26.60;93.90;;;;;;5084103;28;20343;-61
2022/09/26 10:44:35;;;;;;;3.03;2.25;;;26.60;94.00;;;;;;5083870;28;20037;-58
2022/09/26 10:47:07;;;;;;;3.95;2.20;;;26.60;94.00;;;;;;5083862;28;20060;-58
2022/09/26 10:49:48;;;;;;;6.38;2.65;;;26.70;94.10;;;;;;5083948;28;20038;-58
2022/09/26 10:52:39;;;;;;;7.20;2.35;;;26.60;94.10;;;;;;5083888;28;20037;-57
2022/09/26 10:55:27;;;;;;;4.40;2.90;;;26.70;94.10;;;;;;5083669;28;20099;-59
2022/09/26 10:58:01;;;;;;;4.10;3.03;;;26.70;94.10;;;;;;5084037;28;20021;-59
2022/09/26 11:00:36;;;;;;;20.38;3.72;;;26.60;94.00;;;;;;5083883;28;20040;-59
2022/09/26 11:03:14;;;;;;;5.70;2.55;;;26.70;94.10;;;;;;5083325;28;20095;-61
2022/09/26 11:05:56;;;;;;;3.65;2.33;;;26.70;94.30;;;;;;5084328;28;20040;-61
2022/09/26 11:08:33;;;;;;;6.88;2.72;;;26.70;94.10;;;;;;5084711;28;20174;-60
2022/09/26 11:11:10;;;;;;;3.20;2.22;;;26.70;94.10;;;;;;5084058;28;20060;-62
2022/09/26 11:13:46;;;;;;;4.65;2.70;;;26.70;94.20;;;;;;5084233;28;20028;-59
2022/09/26 11:16:20;;;;;;;4.53;2.38;;;26.70;94.20;;;;;;5083776;28;20316;-62
2022/09/26 11:19:21;;;;;;;5.07;2.30;;;26.70;94.20;;;;;;5084126;28;20013;-58
2022/09/26 11:21:54;;;;;;;38.75;4.60;;;26.70;94.30;;;;;;5083367;28;20201;-56
2022/09/26 11:24:49;;;;;;;17.42;3.17;;;26.80;94.30;;;;;;5083546;28;20374;-57
2022/09/26 11:27:25;;;;;;;9.80;2.90;;;26.70;94.30;;;;;;5082047;28;20032;-58
2022/09/26 11:30:00;;;;;;;12.68;2.70;;;26.70;94.30;;;;;;5083733;28;20221;-55
2022/09/26 11:32:39;;;;;;;8.55;2.85;;;26.80;94.30;;;;;;5081901;28;20054;-54
2022/09/26 11:35:13;;;;;;;7.60;2.63;;;26.80;94.30;;;;;;5083547;28;20104;-56
2022/09/26 11:38:14;;;;;;;6.07;2.20;;;26.80;94.30;;;;;;5083696;28;20028;-56
2022/09/26 11:41:00;;;;;;;3.85;2.25;;;26.80;94.20;;;;;;5082607;28;20052;-53
2022/09/26 11:43:39;;;;;;;6.15;2.45;;;26.90;94.40;;;;;;5083663;28;20209;-58
2022/09/26 11:46:30;;;;;;;5.72;2.28;;;26.90;94.20;;;;;;5083513;28;20025;-55
2022/09/26 11:49:30;;;;;;;7.68;3.10;;;26.90;94.10;;;;;;5084134;28;20039;-54
2022/09/26 11:52:28;;;;;;;5.43;2.97;;;26.90;94.00;;;;;;5086917;28;20017;-55
2022/09/26 11:55:16;;;;;;;6.30;2.70;;;26.90;93.90;;;;;;5084085;28;20043;-54
2022/09/26 11:58:01;;;;;;;5.85;2.00;;;27.00;93.90;;;;;;5085346;28;20016;-55
2022/09/26 12:00:43;;;;;;;4.28;2.20;;;27.00;94.00;;;;;;5085707;28;20245;-55
2022/09/26 12:03:46;;;;;;;5.70;1.70;;;27.00;94.00;;;;;;5068032;28;20031;-53
2022/09/26 12:06:37;;;;;;;7.68;2.10;;;27.00;94.00;;;;;;5073050;28;20033;-56
2022/09/26 12:09:29;;;;;;;5.88;1.63;;;27.10;93.90;;;;;;5070522;28;20394;-54
2022/09/26 12:11:56;;;;;;;9.52;1.90;;;27.10;94.10;;;;;;5085460;28;20086;-55
2022/09/26 12:14:46;;;;;;;30.40;2.38;;;27.20;93.80;;;;;;5074070;28;20088;-54
2022/09/26 12:17:40;;;;;;;389.23;20.15;;;27.20;93.80;;;;;;5074094;28;20024;-56
2022/09/26 12:20:32;;;;;;;52.10;4.10;;;27.20;93.80;;;;;;5066547;28;20056;-53
2022/09/26 12:23:20;;;;;;;21.70;2.63;;;27.30;93.90;;;;;;5072461;28;20308;-54
2022/09/26 12:26:14;;;;;;;20.77;2.50;;;27.30;93.80;;;;;;5079062;28;20131;-54
2022/09/26 12:29:02;;;;;;;11.57;2.03;;;27.30;93.90;;;;;;5074560;28;20288;-54
2022/09/26 12:31:38;;;;;;;17.90;2.08;;;27.40;93.90;;;;;;5074667;28;20048;-51
2022/09/26 12:34:29;;;;;;;11.50;2.10;;;27.40;93.70;;;;;;5077051;28;20024;-55
2022/09/26 12:37:17;;;;;;;8.52;1.85;;;27.40;93.60;;;;;;5075675;28;20025;-59
2022/09/26 12:39:59;;;;;;;7.10;1.40;;;27.50;93.70;;;;;;5071050;28;20017;-54
2022/09/26 12:42:47;;;;;;;10.07;1.95;;;27.50;93.50;;;;;;5086857;28;20032;-57
2022/09/26 12:45:32;;;;;;;5.80;1.30;;;27.50;93.40;;;;;;5087077;28;20035;-52
2022/09/26 12:48:40;;;;;;;6.78;1.55;;;27.50;93.10;;;;;;5086399;28;20024;-53
2022/09/26 12:51:41;;;;;;;58.17;4.07;;;27.60;93.20;;;;;;5085709;28;20029;-56
2022/09/26 12:54:23;;;;;;;13.57;1.50;;;27.60;92.90;;;;;;5085890;28;20056;-53
2022/09/26 12:57:13;;;;;;;99.13;5.47;;;27.60;92.90;;;;;;5085884;28;20020;-53
2022/09/26 12:59:55;;;;;;;25.30;1.88;;;27.60;93.00;;;;;;5084294;28;20048;-54
2022/09/26 13:03:02;;;;;;;13.60;2.17;;;27.70;93.20;;;;;;5083998;28;20032;-51
2022/09/26 13:05:50;;;;;;;7.30;2.10;;;27.70;93.10;;;;;;5080361;28;20047;-54
2022/09/26 13:08:27;;;;;;;10.38;1.80;;;27.70;93.00;;;;;;5084931;28;20028;-53
2022/09/26 13:11:07;;;;;;;4.38;1.60;;;27.70;93.00;;;;;;5084506;28;20112;-54
2022/09/26 13:13:45;;;;;;;12.52;1.70;;;27.70;93.00;;;;;;5085420;28;20020;-54
2022/09/26 13:16:26;;;;;;;4.90;1.60;;;27.80;93.10;;;;;;5085440;28;20032;-53
2022/09/26 13:19:10;;;;;;;9.32;1.55;;;27.80;93.00;;;;;;5085274;28;20021;-54
2022/09/26 13:21:50;;;;;;;5.47;1.40;;;27.80;93.10;;;;;;5085211;28;20040;-53
2022/09/26 13:24:51;;;;;;;9.63;1.50;;;27.80;93.20;;;;;;5085358;28;20032;-53
2022/09/26 13:27:35;;;;;;;2.85;1.55;;;27.80;93.20;;;;;;5085322;28;20036;-53
2022/09/26 13:30:25;;;;;;;4.32;1.40;;;27.80;93.20;;;;;;5085151;28;20027;-57
2022/09/26 13:33:22;;;;;;;4.22;1.60;;;27.80;93.10;;;;;;5085185;28;20033;-54
2022/09/26 13:35:52;;;;;;;3.60;1.75;;;27.80;93.10;;;;;;5085001;28;20052;-54
2022/09/26 13:38:56;;;;;;;2.97;1.60;;;27.80;93.10;;;;;;5086022;28;20028;-57
2022/09/26 13:41:45;;;;;;;3.83;1.65;;;27.80;93.10;;;;;;5085448;28;20031;-56
2022/09/26 13:44:29;;;;;;;4.93;1.80;;;27.90;93.10;;;;;;5085281;28;20024;-55